FAPN

Pilanesberg International Airport

Pilanesberg, South Africa
METAR FAPN 260300Z AUTO 08011KT //// // ////// 19/12 Q1018
Observed Flight Rules
Feb-26 @ 03:00 UTC (35 minutes ago)
Wind
80° at 11 knots
Temperatures Readings
Current 19°C / 66°F
Dewpoint 12°C / 54°F
Humidity 64%
Altimeter 30.06" Hg
Pressure 1018 hPa
Elevation 1039
METAR FAPN 260300Z AUTO 08011KT //// // ////// 19/12 Q1018
Observed Flight Rules
Feb-26 @ 03:00 UTC
(35 minutes ago)
Wind
80° at 11 knots
Temperature Dewpoint
19°C / 66°F 12°C / 54°F
Humidity Altimeter Pressure
64% 30.06" Hg 1018 hPa